sensor_id;sensor_type;location;lat;lon;timestamp;temperature;humidity
37460;DHT22;23318;50.966;5.284;2022-07-10T00:00:35;15.40;99.90
37460;DHT22;23318;50.966;5.284;2022-07-10T00:03:02;15.30;99.90
37460;DHT22;23318;50.966;5.284;2022-07-10T00:05:28;15.20;99.90
37460;DHT22;23318;50.966;5.284;2022-07-10T00:07:54;15.40;99.90
37460;DHT22;23318;50.966;5.284;2022-07-10T00:10:20;15.00;99.90
37460;DHT22;23318;50.966;5.284;2022-07-10T00:12:47;15.10;99.90
37460;DHT22;23318;50.966;5.284;2022-07-10T00:15:14;15.10;99.90
37460;DHT22;23318;50.966;5.284;2022-07-10T00:17:41;15.00;99.90
37460;DHT22;23318;50.966;5.284;2022-07-10T00:20:08;15.10;99.90
37460;DHT22;23318;50.966;5.284;2022-07-10T00:22:34;15.30;99.90
37460;DHT22;23318;50.966;5.284;2022-07-10T00:25:04;15.40;99.90
37460;DHT22;23318;50.966;5.284;2022-07-10T00:27:30;15.30;99.90
37460;DHT22;23318;50.966;5.284;2022-07-10T00:29:56;15.50;99.90
37460;DHT22;23318;50.966;5.284;2022-07-10T00:32:22;15.50;99.90
37460;DHT22;23318;50.966;5.284;2022-07-10T00:34:48;15.40;99.90
37460;DHT22;23318;50.966;5.284;2022-07-10T00:37:14;15.40;99.90
37460;DHT22;23318;50.966;5.284;2022-07-10T00:39:39;15.40;99.90
37460;DHT22;23318;50.966;5.284;2022-07-10T00:42:10;15.40;99.90
37460;DHT22;23318;50.966;5.284;2022-07-10T00:44:37;15.40;99.90
37460;DHT22;23318;50.966;5.284;2022-07-10T00:47:07;15.30;99.90
37460;DHT22;23318;50.966;5.284;2022-07-10T00:49:33;15.40;99.90
37460;DHT22;23318;50.966;5.284;2022-07-10T00:52:00;15.30;99.90
37460;DHT22;23318;50.966;5.284;2022-07-10T00:54:28;15.30;99.90
37460;DHT22;23318;50.966;5.284;2022-07-10T00:56:54;15.10;99.90
37460;DHT22;23318;50.966;5.284;2022-07-10T00:59:21;15.10;99.90
37460;DHT22;23318;50.966;5.284;2022-07-10T01:01:49;15.10;99.90
37460;DHT22;23318;50.966;5.284;2022-07-10T01:04:15;15.00;99.90
37460;DHT22;23318;50.966;5.284;2022-07-10T01:06:41;15.00;99.90
37460;DHT22;23318;50.966;5.284;2022-07-10T01:09:06;14.70;99.90
37460;DHT22;23318;50.966;5.284;2022-07-10T01:11:34;14.70;99.90
37460;DHT22;23318;50.966;5.284;2022-07-10T01:14:04;14.80;99.90
37460;DHT22;23318;50.966;5.284;2022-07-10T01:16:30;15.00;99.90
37460;DHT22;23318;50.966;5.284;2022-07-10T01:18:57;15.10;99.90
37460;DHT22;23318;50.966;5.284;2022-07-10T01:21:27;15.20;99.90
37460;DHT22;23318;50.966;5.284;2022-07-10T01:23:53;15.20;99.90
37460;DHT22;23318;50.966;5.284;2022-07-10T01:26:19;15.10;99.90
37460;DHT22;23318;50.966;5.284;2022-07-10T01:28:49;15.10;99.90
37460;DHT22;23318;50.966;5.284;2022-07-10T01:31:14;15.00;99.90
37460;DHT22;23318;50.966;5.284;2022-07-10T01:33:40;14.90;99.90
37460;DHT22;23318;50.966;5.284;2022-07-10T01:36:07;14.80;99.90
37460;DHT22;23318;50.966;5.284;2022-07-10T01:38:33;14.80;99.90
37460;DHT22;23318;50.966;5.284;2022-07-10T01:40:58;14.70;99.90
37460;DHT22;23318;50.966;5.284;2022-07-10T01:43:24;14.80;99.90
37460;DHT22;23318;50.966;5.284;2022-07-10T01:45:49;14.70;99.90
37460;DHT22;23318;50.966;5.284;2022-07-10T01:48:16;14.80;99.90
37460;DHT22;23318;50.966;5.284;2022-07-10T01:50:43;14.70;99.90
37460;DHT22;23318;50.966;5.284;2022-07-10T01:53:09;14.30;99.90
37460;DHT22;23318;50.966;5.284;2022-07-10T01:55:34;13.40;99.90
37460;DHT22;23318;50.966;5.284;2022-07-10T01:58:00;13.00;99.90
37460;DHT22;23318;50.966;5.284;2022-07-10T02:00:26;13.40;99.90
37460;DHT22;23318;50.966;5.284;2022-07-10T02:02:51;13.80;99.90
37460;DHT22;23318;50.966;5.284;2022-07-10T02:05:35;14.20;99.90
37460;DHT22;23318;50.966;5.284;2022-07-10T02:08:03;14.00;99.90
37460;DHT22;23318;50.966;5.284;2022-07-10T02:10:29;14.10;99.90
37460;DHT22;23318;50.966;5.284;2022-07-10T02:12:55;14.20;99.90
37460;DHT22;23318;50.966;5.284;2022-07-10T02:15:21;14.20;99.90
37460;DHT22;23318;50.966;5.284;2022-07-10T02:17:47;14.10;99.90
37460;DHT22;23318;50.966;5.284;2022-07-10T02:20:13;14.10;99.90
37460;DHT22;23318;50.966;5.284;2022-07-10T02:22:38;14.00;99.90
37460;DHT22;23318;50.966;5.284;2022-07-10T02:25:04;13.70;99.90
37460;DHT22;23318;50.966;5.284;2022-07-10T02:27:30;12.90;99.90
37460;DHT22;23318;50.966;5.284;2022-07-10T02:29:56;12.50;99.90
37460;DHT22;23318;50.966;5.284;2022-07-10T02:32:21;12.30;99.90
37460;DHT22;23318;50.966;5.284;2022-07-10T02:34:47;12.40;99.90
37460;DHT22;23318;50.966;5.284;2022-07-10T02:37:13;12.60;99.90
37460;DHT22;23318;50.966;5.284;2022-07-10T02:39:38;13.10;99.90
37460;DHT22;23318;50.966;5.284;2022-07-10T02:42:04;13.50;99.90
37460;DHT22;23318;50.966;5.284;2022-07-10T02:44:30;13.50;99.90
37460;DHT22;23318;50.966;5.284;2022-07-10T02:46:57;13.60;99.90
37460;DHT22;23318;50.966;5.284;2022-07-10T02:49:22;13.60;99.90
37460;DHT22;23318;50.966;5.284;2022-07-10T02:51:48;13.60;99.90
37460;DHT22;23318;50.966;5.284;2022-07-10T02:54:14;13.60;99.90
37460;DHT22;23318;50.966;5.284;2022-07-10T02:56:39;13.30;99.90
37460;DHT22;23318;50.966;5.284;2022-07-10T02:59:05;12.50;99.90
37460;DHT22;23318;50.966;5.284;2022-07-10T03:01:32;12.30;99.90
37460;DHT22;23318;50.966;5.284;2022-07-10T03:03:58;12.30;99.90
37460;DHT22;23318;50.966;5.284;2022-07-10T03:06:23;12.20;99.90
37460;DHT22;23318;50.966;5.284;2022-07-10T03:08:49;12.50;99.90
37460;DHT22;23318;50.966;5.284;2022-07-10T03:11:15;12.70;99.90
37460;DHT22;23318;50.966;5.284;2022-07-10T03:13:41;12.20;99.90
37460;DHT22;23318;50.966;5.284;2022-07-10T03:16:06;12.00;99.90
37460;DHT22;23318;50.966;5.284;2022-07-10T03:18:32;11.90;99.90
37460;DHT22;23318;50.966;5.284;2022-07-10T03:20:58;11.70;99.90
37460;DHT22;23318;50.966;5.284;2022-07-10T03:23:23;11.70;99.90
37460;DHT22;23318;50.966;5.284;2022-07-10T03:25:49;11.70;99.90
37460;DHT22;23318;50.966;5.284;2022-07-10T03:28:15;12.10;99.90
37460;DHT22;23318;50.966;5.284;2022-07-10T03:30:40;12.20;99.90
37460;DHT22;23318;50.966;5.284;2022-07-10T03:33:06;12.40;99.90
37460;DHT22;23318;50.966;5.284;2022-07-10T03:35:31;12.80;99.90
37460;DHT22;23318;50.966;5.284;2022-07-10T03:37:57;13.10;99.90
37460;DHT22;23318;50.966;5.284;2022-07-10T03:40:23;13.20;99.90
37460;DHT22;23318;50.966;5.284;2022-07-10T03:42:49;13.30;99.90
37460;DHT22;23318;50.966;5.284;2022-07-10T03:45:15;13.20;99.90
37460;DHT22;23318;50.966;5.284;2022-07-10T03:47:40;12.90;99.90
37460;DHT22;23318;50.966;5.284;2022-07-10T03:50:06;12.70;99.90
37460;DHT22;23318;50.966;5.284;2022-07-10T03:52:32;12.60;99.90
37460;DHT22;23318;50.966;5.284;2022-07-10T03:54:57;12.10;99.90
37460;DHT22;23318;50.966;5.284;2022-07-10T03:57:23;12.20;99.90
37460;DHT22;23318;50.966;5.284;2022-07-10T04:00:07;12.50;99.90
37460;DHT22;23318;50.966;5.284;2022-07-10T04:02:33;12.20;99.90
37460;DHT22;23318;50.966;5.284;2022-07-10T04:04:59;12.20;99.90
37460;DHT22;23318;50.966;5.284;2022-07-10T04:07:25;11.90;99.90
37460;DHT22;23318;50.966;5.284;2022-07-10T04:09:50;11.70;99.90
37460;DHT22;23318;50.966;5.284;2022-07-10T04:12:16;11.60;99.90
37460;DHT22;23318;50.966;5.284;2022-07-10T04:14:42;12.00;99.90
37460;DHT22;23318;50.966;5.284;2022-07-10T04:17:07;12.30;99.90
37460;DHT22;23318;50.966;5.284;2022-07-10T04:19:34;12.50;99.90
37460;DHT22;23318;50.966;5.284;2022-07-10T04:21:59;12.90;99.90
37460;DHT22;23318;50.966;5.284;2022-07-10T04:24:25;12.90;99.90
37460;DHT22;23318;50.966;5.284;2022-07-10T04:26:51;13.20;99.90
37460;DHT22;23318;50.966;5.284;2022-07-10T04:29:16;13.30;99.90
37460;DHT22;23318;50.966;5.284;2022-07-10T04:31:42;13.10;99.90
37460;DHT22;23318;50.966;5.284;2022-07-10T04:34:08;12.80;99.90
37460;DHT22;23318;50.966;5.284;2022-07-10T04:36:33;12.60;99.90
37460;DHT22;23318;50.966;5.284;2022-07-10T04:38:59;12.80;99.90
37460;DHT22;23318;50.966;5.284;2022-07-10T04:41:24;12.80;99.90
37460;DHT22;23318;50.966;5.284;2022-07-10T04:43:50;12.90;99.90
37460;DHT22;23318;50.966;5.284;2022-07-10T04:46:16;12.40;99.90
37460;DHT22;23318;50.966;5.284;2022-07-10T04:48:42;12.50;99.90
37460;DHT22;23318;50.966;5.284;2022-07-10T04:51:07;12.90;99.90
37460;DHT22;23318;50.966;5.284;2022-07-10T04:53:34;12.80;99.90
37460;DHT22;23318;50.966;5.284;2022-07-10T04:55:59;12.70;99.90
37460;DHT22;23318;50.966;5.284;2022-07-10T04:58:25;13.00;99.90
37460;DHT22;23318;50.966;5.284;2022-07-10T05:00:50;13.20;99.90
37460;DHT22;23318;50.966;5.284;2022-07-10T05:03:16;12.60;99.90
37460;DHT22;23318;50.966;5.284;2022-07-10T05:05:42;12.30;99.90
37460;DHT22;23318;50.966;5.284;2022-07-10T05:08:09;12.70;99.90
37460;DHT22;23318;50.966;5.284;2022-07-10T05:10:34;13.00;99.90
37460;DHT22;23318;50.966;5.284;2022-07-10T05:13:00;12.90;99.90
37460;DHT22;23318;50.966;5.284;2022-07-10T05:15:26;13.50;99.90
37460;DHT22;23318;50.966;5.284;2022-07-10T05:17:51;13.90;99.90
37460;DHT22;23318;50.966;5.284;2022-07-10T05:20:17;14.10;99.90
37460;DHT22;23318;50.966;5.284;2022-07-10T05:22:42;14.40;99.90
37460;DHT22;23318;50.966;5.284;2022-07-10T05:25:08;14.50;99.90
37460;DHT22;23318;50.966;5.284;2022-07-10T05:27:34;14.60;99.90
37460;DHT22;23318;50.966;5.284;2022-07-10T05:29:59;14.80;99.90
37460;DHT22;23318;50.966;5.284;2022-07-10T05:32:25;15.00;99.90
37460;DHT22;23318;50.966;5.284;2022-07-10T05:34:51;15.00;99.90
37460;DHT22;23318;50.966;5.284;2022-07-10T05:37:17;15.10;99.90
37460;DHT22;23318;50.966;5.284;2022-07-10T05:39:43;15.00;99.90
37460;DHT22;23318;50.966;5.284;2022-07-10T05:42:09;15.30;99.90
37460;DHT22;23318;50.966;5.284;2022-07-10T05:44:34;15.60;99.90
37460;DHT22;23318;50.966;5.284;2022-07-10T05:47:00;15.50;99.90
37460;DHT22;23318;50.966;5.284;2022-07-10T05:49:26;15.70;99.90
37460;DHT22;23318;50.966;5.284;2022-07-10T05:51:51;15.50;99.90
37460;DHT22;23318;50.966;5.284;2022-07-10T05:54:17;15.30;99.90
37460;DHT22;23318;50.966;5.284;2022-07-10T05:56:43;15.30;99.90
37460;DHT22;23318;50.966;5.284;2022-07-10T05:59:10;15.40;99.90
37460;DHT22;23318;50.966;5.284;2022-07-10T06:01:36;16.00;99.90
37460;DHT22;23318;50.966;5.284;2022-07-10T06:04:01;16.30;99.90
37460;DHT22;23318;50.966;5.284;2022-07-10T06:06:27;16.40;99.90
37460;DHT22;23318;50.966;5.284;2022-07-10T06:08:52;16.50;99.90
37460;DHT22;23318;50.966;5.284;2022-07-10T06:11:18;15.40;99.90
37460;DHT22;23318;50.966;5.284;2022-07-10T06:13:44;15.40;99.90
37460;DHT22;23318;50.966;5.284;2022-07-10T06:16:09;15.10;99.90
37460;DHT22;23318;50.966;5.284;2022-07-10T06:18:35;15.30;99.90
37460;DHT22;23318;50.966;5.284;2022-07-10T06:21:01;15.30;99.90
37460;DHT22;23318;50.966;5.284;2022-07-10T06:23:26;15.90;99.90
37460;DHT22;23318;50.966;5.284;2022-07-10T06:25:52;16.20;99.90
37460;DHT22;23318;50.966;5.284;2022-07-10T06:28:18;16.10;99.90
37460;DHT22;23318;50.966;5.284;2022-07-10T06:30:44;15.90;99.90
37460;DHT22;23318;50.966;5.284;2022-07-10T06:33:11;15.80;99.90
37460;DHT22;23318;50.966;5.284;2022-07-10T06:35:37;15.60;99.90
37460;DHT22;23318;50.966;5.284;2022-07-10T06:38:03;15.90;99.90
37460;DHT22;23318;50.966;5.284;2022-07-10T06:40:29;16.30;99.90
37460;DHT22;23318;50.966;5.284;2022-07-10T06:42:55;16.40;99.90
37460;DHT22;23318;50.966;5.284;2022-07-10T06:45:21;16.70;99.90
37460;DHT22;23318;50.966;5.284;2022-07-10T06:47:47;17.00;99.90
37460;DHT22;23318;50.966;5.284;2022-07-10T06:50:22;16.70;99.90
37460;DHT22;23318;50.966;5.284;2022-07-10T06:52:49;16.90;99.90
37460;DHT22;23318;50.966;5.284;2022-07-10T06:55:15;17.20;99.90
37460;DHT22;23318;50.966;5.284;2022-07-10T06:57:41;16.70;99.90
37460;DHT22;23318;50.966;5.284;2022-07-10T07:00:08;16.80;99.90
37460;DHT22;23318;50.966;5.284;2022-07-10T07:02:35;17.00;99.90
37460;DHT22;23318;50.966;5.284;2022-07-10T07:05:01;16.90;99.90
37460;DHT22;23318;50.966;5.284;2022-07-10T07:07:27;17.00;99.90
37460;DHT22;23318;50.966;5.284;2022-07-10T07:09:53;16.90;99.90
37460;DHT22;23318;50.966;5.284;2022-07-10T07:12:19;17.10;99.90
37460;DHT22;23318;50.966;5.284;2022-07-10T07:14:44;17.40;99.90
37460;DHT22;23318;50.966;5.284;2022-07-10T07:17:10;17.20;99.90
37460;DHT22;23318;50.966;5.284;2022-07-10T07:19:38;17.10;99.90
37460;DHT22;23318;50.966;5.284;2022-07-10T07:22:27;17.20;99.90
37460;DHT22;23318;50.966;5.284;2022-07-10T07:25:11;17.40;99.90
37460;DHT22;23318;50.966;5.284;2022-07-10T07:27:38;17.70;99.90
37460;DHT22;23318;50.966;5.284;2022-07-10T07:30:09;17.90;99.90
37460;DHT22;23318;50.966;5.284;2022-07-10T07:32:40;18.10;99.90
37460;DHT22;23318;50.966;5.284;2022-07-10T07:35:07;17.90;99.90
37460;DHT22;23318;50.966;5.284;2022-07-10T07:37:39;18.10;99.90
37460;DHT22;23318;50.966;5.284;2022-07-10T07:40:10;18.10;99.90
37460;DHT22;23318;50.966;5.284;2022-07-10T07:42:36;18.30;99.90
37460;DHT22;23318;50.966;5.284;2022-07-10T07:45:02;18.70;99.90
37460;DHT22;23318;50.966;5.284;2022-07-10T07:47:29;19.00;99.90
37460;DHT22;23318;50.966;5.284;2022-07-10T07:49:55;19.20;99.90
37460;DHT22;23318;50.966;5.284;2022-07-10T07:52:20;18.90;99.90
37460;DHT22;23318;50.966;5.284;2022-07-10T07:54:48;18.90;99.90
37460;DHT22;23318;50.966;5.284;2022-07-10T07:57:14;18.80;99.90
37460;DHT22;23318;50.966;5.284;2022-07-10T07:59:40;18.70;99.90
37460;DHT22;23318;50.966;5.284;2022-07-10T08:02:06;18.60;99.90
37460;DHT22;23318;50.966;5.284;2022-07-10T08:04:32;18.30;99.90
37460;DHT22;23318;50.966;5.284;2022-07-10T08:06:57;18.80;99.90
37460;DHT22;23318;50.966;5.284;2022-07-10T08:09:23;19.50;99.90
37460;DHT22;23318;50.966;5.284;2022-07-10T08:11:49;19.20;99.90
37460;DHT22;23318;50.966;5.284;2022-07-10T08:14:15;19.00;99.90
37460;DHT22;23318;50.966;5.284;2022-07-10T08:16:40;19.40;99.90
37460;DHT22;23318;50.966;5.284;2022-07-10T08:19:06;19.60;99.90
37460;DHT22;23318;50.966;5.284;2022-07-10T08:21:32;19.60;99.90
37460;DHT22;23318;50.966;5.284;2022-07-10T08:23:59;19.20;99.90
37460;DHT22;23318;50.966;5.284;2022-07-10T08:26:25;19.30;99.90
37460;DHT22;23318;50.966;5.284;2022-07-10T08:28:50;19.30;99.90
37460;DHT22;23318;50.966;5.284;2022-07-10T08:31:16;19.40;99.90
37460;DHT22;23318;50.966;5.284;2022-07-10T08:33:42;20.00;99.90
37460;DHT22;23318;50.966;5.284;2022-07-10T08:36:08;20.60;99.90
37460;DHT22;23318;50.966;5.284;2022-07-10T08:38:33;20.90;99.90
37460;DHT22;23318;50.966;5.284;2022-07-10T08:41:00;21.20;99.90
37460;DHT22;23318;50.966;5.284;2022-07-10T08:43:28;21.20;99.90
37460;DHT22;23318;50.966;5.284;2022-07-10T08:45:54;20.40;99.90
37460;DHT22;23318;50.966;5.284;2022-07-10T08:48:23;20.20;99.90
37460;DHT22;23318;50.966;5.284;2022-07-10T08:50:52;20.20;99.90
37460;DHT22;23318;50.966;5.284;2022-07-10T08:53:29;19.70;99.90
37460;DHT22;23318;50.966;5.284;2022-07-10T08:55:56;19.80;99.90
37460;DHT22;23318;50.966;5.284;2022-07-10T08:58:22;20.00;99.90
37460;DHT22;23318;50.966;5.284;2022-07-10T09:00:49;19.90;99.90
37460;DHT22;23318;50.966;5.284;2022-07-10T09:03:15;20.20;99.90
37460;DHT22;23318;50.966;5.284;2022-07-10T09:05:41;20.10;99.90
37460;DHT22;23318;50.966;5.284;2022-07-10T09:08:26;21.10;99.90
37460;DHT22;23318;50.966;5.284;2022-07-10T09:11:18;21.80;99.90
37460;DHT22;23318;50.966;5.284;2022-07-10T09:13:54;21.70;99.90
37460;DHT22;23318;50.966;5.284;2022-07-10T09:16:25;22.30;99.90
37460;DHT22;23318;50.966;5.284;2022-07-10T09:18:51;22.80;99.80
37460;DHT22;23318;50.966;5.284;2022-07-10T09:21:17;23.40;98.70
37460;DHT22;23318;50.966;5.284;2022-07-10T09:23:43;24.20;97.40
37460;DHT22;23318;50.966;5.284;2022-07-10T09:26:08;23.90;97.70
37460;DHT22;23318;50.966;5.284;2022-07-10T09:28:34;23.50;98.60
37460;DHT22;23318;50.966;5.284;2022-07-10T09:30:59;22.80;99.30
37460;DHT22;23318;50.966;5.284;2022-07-10T09:33:27;22.90;99.20
37460;DHT22;23318;50.966;5.284;2022-07-10T09:36:12;22.40;99.90
37460;DHT22;23318;50.966;5.284;2022-07-10T09:41:29;21.50;99.90
37460;DHT22;23318;50.966;5.284;2022-07-10T09:44:05;20.60;99.90
37460;DHT22;23318;50.966;5.284;2022-07-10T09:46:35;21.10;99.90
37460;DHT22;23318;50.966;5.284;2022-07-10T09:49:05;21.20;99.90
37460;DHT22;23318;50.966;5.284;2022-07-10T09:51:33;21.00;99.90
37460;DHT22;23318;50.966;5.284;2022-07-10T09:54:05;21.00;99.90
37460;DHT22;23318;50.966;5.284;2022-07-10T09:56:43;21.00;99.90
37460;DHT22;23318;50.966;5.284;2022-07-10T09:59:11;21.50;99.90
37460;DHT22;23318;50.966;5.284;2022-07-10T10:01:37;21.80;99.90
37460;DHT22;23318;50.966;5.284;2022-07-10T10:04:08;22.10;99.90
37460;DHT22;23318;50.966;5.284;2022-07-10T10:06:36;21.80;99.90
37460;DHT22;23318;50.966;5.284;2022-07-10T10:09:24;22.00;99.90
37460;DHT22;23318;50.966;5.284;2022-07-10T10:12:07;22.40;99.90
37460;DHT22;23318;50.966;5.284;2022-07-10T10:14:33;22.20;99.90
37460;DHT22;23318;50.966;5.284;2022-07-10T10:17:00;21.80;99.90
37460;DHT22;23318;50.966;5.284;2022-07-10T10:19:26;21.70;99.90
37460;DHT22;23318;50.966;5.284;2022-07-10T10:22:12;21.60;99.90
37460;DHT22;23318;50.966;5.284;2022-07-10T10:24:39;21.40;99.90
37460;DHT22;23318;50.966;5.284;2022-07-10T10:27:06;21.00;99.90
37460;DHT22;23318;50.966;5.284;2022-07-10T10:29:34;20.60;99.90
37460;DHT22;23318;50.966;5.284;2022-07-10T10:32:01;20.70;99.90
37460;DHT22;23318;50.966;5.284;2022-07-10T10:34:46;21.20;99.90
37460;DHT22;23318;50.966;5.284;2022-07-10T10:37:40;21.40;99.90
37460;DHT22;23318;50.966;5.284;2022-07-10T10:40:32;21.30;99.90
37460;DHT22;23318;50.966;5.284;2022-07-10T10:42:59;21.50;99.90
37460;DHT22;23318;50.966;5.284;2022-07-10T10:45:41;21.40;99.90
37460;DHT22;23318;50.966;5.284;2022-07-10T10:48:08;21.80;99.90
37460;DHT22;23318;50.966;5.284;2022-07-10T10:50:58;22.10;99.90
37460;DHT22;23318;50.966;5.284;2022-07-10T10:53:28;22.40;99.90
37460;DHT22;23318;50.966;5.284;2022-07-10T10:58:27;22.20;99.90
37460;DHT22;23318;50.966;5.284;2022-07-10T11:01:05;22.40;99.90
37460;DHT22;23318;50.966;5.284;2022-07-10T11:03:31;22.60;99.90
37460;DHT22;23318;50.966;5.284;2022-07-10T11:05:57;22.20;99.90
37460;DHT22;23318;50.966;5.284;2022-07-10T11:08:38;21.90;99.90
37460;DHT22;23318;50.966;5.284;2022-07-10T11:13:57;21.40;99.90
37460;DHT22;23318;50.966;5.284;2022-07-10T11:16:23;21.60;99.90
37460;DHT22;23318;50.966;5.284;2022-07-10T11:18:53;21.50;99.90
37460;DHT22;23318;50.966;5.284;2022-07-10T11:21:24;21.90;99.90
37460;DHT22;23318;50.966;5.284;2022-07-10T11:26:49;22.10;99.90
37460;DHT22;23318;50.966;5.284;2022-07-10T11:29:18;22.40;99.90
37460;DHT22;23318;50.966;5.284;2022-07-10T11:31:55;22.00;99.90
37460;DHT22;23318;50.966;5.284;2022-07-10T11:34:34;21.90;99.90
37460;DHT22;23318;50.966;5.284;2022-07-10T11:37:00;22.20;99.90
37460;DHT22;23318;50.966;5.284;2022-07-10T11:39:26;22.70;99.90
37460;DHT22;23318;50.966;5.284;2022-07-10T11:41:51;23.00;99.90
37460;DHT22;23318;50.966;5.284;2022-07-10T11:44:18;23.30;99.90
37460;DHT22;23318;50.966;5.284;2022-07-10T11:46:46;23.70;99.90
37460;DHT22;23318;50.966;5.284;2022-07-10T11:49:15;24.50;99.20
37460;DHT22;23318;50.966;5.284;2022-07-10T11:51:41;25.60;96.50
37460;DHT22;23318;50.966;5.284;2022-07-10T11:54:09;26.40;95.90
37460;DHT22;23318;50.966;5.284;2022-07-10T11:56:38;26.00;95.80
37460;DHT22;23318;50.966;5.284;2022-07-10T11:59:10;25.70;95.80
37460;DHT22;23318;50.966;5.284;2022-07-10T12:01:43;25.90;96.40
37460;DHT22;23318;50.966;5.284;2022-07-10T12:04:09;25.60;96.70
37460;DHT22;23318;50.966;5.284;2022-07-10T12:06:48;25.90;95.90
37460;DHT22;23318;50.966;5.284;2022-07-10T12:09:16;26.50;95.10
37460;DHT22;23318;50.966;5.284;2022-07-10T12:11:43;27.00;95.00
37460;DHT22;23318;50.966;5.284;2022-07-10T12:14:19;27.40;94.10
37460;DHT22;23318;50.966;5.284;2022-07-10T12:16:47;27.80;93.70
37460;DHT22;23318;50.966;5.284;2022-07-10T12:19:18;28.10;93.30
37460;DHT22;23318;50.966;5.284;2022-07-10T12:21:45;27.90;94.00
37460;DHT22;23318;50.966;5.284;2022-07-10T12:24:13;27.80;93.90
37460;DHT22;23318;50.966;5.284;2022-07-10T12:26:41;26.30;94.70
37460;DHT22;23318;50.966;5.284;2022-07-10T12:29:18;25.70;95.80
37460;DHT22;23318;50.966;5.284;2022-07-10T12:31:44;25.60;96.40
37460;DHT22;23318;50.966;5.284;2022-07-10T12:34:11;25.30;96.80
37460;DHT22;23318;50.966;5.284;2022-07-10T12:36:50;25.80;96.10
37460;DHT22;23318;50.966;5.284;2022-07-10T12:39:18;26.70;95.20
37460;DHT22;23318;50.966;5.284;2022-07-10T12:42:00;27.80;93.80
37460;DHT22;23318;50.966;5.284;2022-07-10T12:44:43;27.80;93.60
37460;DHT22;23318;50.966;5.284;2022-07-10T12:47:14;26.80;94.40
37460;DHT22;23318;50.966;5.284;2022-07-10T12:54:46;28.20;93.50
37460;DHT22;23318;50.966;5.284;2022-07-10T12:57:12;27.20;93.60
37460;DHT22;23318;50.966;5.284;2022-07-10T12:59:37;27.80;93.70
37460;DHT22;23318;50.966;5.284;2022-07-10T13:02:17;28.70;93.10
37460;DHT22;23318;50.966;5.284;2022-07-10T13:04:52;28.40;93.00
37460;DHT22;23318;50.966;5.284;2022-07-10T13:07:18;29.10;92.20
37460;DHT22;23318;50.966;5.284;2022-07-10T13:09:44;30.60;91.30
37460;DHT22;23318;50.966;5.284;2022-07-10T13:12:10;30.90;90.60
37460;DHT22;23318;50.966;5.284;2022-07-10T13:14:36;30.40;90.40
37460;DHT22;23318;50.966;5.284;2022-07-10T13:17:01;29.60;90.90
37460;DHT22;23318;50.966;5.284;2022-07-10T13:19:27;28.70;91.60
37460;DHT22;23318;50.966;5.284;2022-07-10T13:21:53;29.10;91.60
37460;DHT22;23318;50.966;5.284;2022-07-10T13:24:18;28.50;91.60
37460;DHT22;23318;50.966;5.284;2022-07-10T13:26:44;28.00;92.50
37460;DHT22;23318;50.966;5.284;2022-07-10T13:29:10;26.80;93.10
37460;DHT22;23318;50.966;5.284;2022-07-10T13:31:36;26.90;94.00
37460;DHT22;23318;50.966;5.284;2022-07-10T13:34:02;27.10;93.30
37460;DHT22;23318;50.966;5.284;2022-07-10T13:36:28;26.60;93.80
37460;DHT22;23318;50.966;5.284;2022-07-10T13:38:53;26.80;93.80
37460;DHT22;23318;50.966;5.284;2022-07-10T13:41:20;26.70;94.60
37460;DHT22;23318;50.966;5.284;2022-07-10T13:43:46;26.30;94.70
37460;DHT22;23318;50.966;5.284;2022-07-10T13:46:12;25.90;95.00
37460;DHT22;23318;50.966;5.284;2022-07-10T13:48:37;26.50;95.10
37460;DHT22;23318;50.966;5.284;2022-07-10T13:51:03;26.40;94.70
37460;DHT22;23318;50.966;5.284;2022-07-10T13:53:29;26.80;93.90
37460;DHT22;23318;50.966;5.284;2022-07-10T13:55:55;26.90;94.20
37460;DHT22;23318;50.966;5.284;2022-07-10T13:58:20;27.00;94.40
37460;DHT22;23318;50.966;5.284;2022-07-10T14:00:47;27.90;93.50
37460;DHT22;23318;50.966;5.284;2022-07-10T14:03:13;28.90;92.50
37460;DHT22;23318;50.966;5.284;2022-07-10T14:05:38;28.20;92.60
37460;DHT22;23318;50.966;5.284;2022-07-10T14:08:04;28.50;92.60
37460;DHT22;23318;50.966;5.284;2022-07-10T14:10:30;29.90;91.40
37460;DHT22;23318;50.966;5.284;2022-07-10T14:12:56;31.80;90.20
37460;DHT22;23318;50.966;5.284;2022-07-10T14:15:22;33.20;88.50
37460;DHT22;23318;50.966;5.284;2022-07-10T14:17:47;31.40;88.50
37460;DHT22;23318;50.966;5.284;2022-07-10T14:20:14;31.40;88.10
37460;DHT22;23318;50.966;5.284;2022-07-10T14:22:39;31.70;87.70
37460;DHT22;23318;50.966;5.284;2022-07-10T14:25:06;33.30;85.60
37460;DHT22;23318;50.966;5.284;2022-07-10T14:27:34;32.90;84.50
37460;DHT22;23318;50.966;5.284;2022-07-10T14:30:00;31.50;86.70
37460;DHT22;23318;50.966;5.284;2022-07-10T14:32:25;30.90;86.60
37460;DHT22;23318;50.966;5.284;2022-07-10T14:34:52;30.70;87.80
37460;DHT22;23318;50.966;5.284;2022-07-10T14:37:17;31.40;86.90
37460;DHT22;23318;50.966;5.284;2022-07-10T14:39:43;33.50;84.30
37460;DHT22;23318;50.966;5.284;2022-07-10T14:42:11;33.70;83.60
37460;DHT22;23318;50.966;5.284;2022-07-10T14:44:37;33.50;82.30
37460;DHT22;23318;50.966;5.284;2022-07-10T14:47:04;30.90;84.70
37460;DHT22;23318;50.966;5.284;2022-07-10T14:49:29;29.00;88.10
37460;DHT22;23318;50.966;5.284;2022-07-10T14:51:55;28.30;90.30
37460;DHT22;23318;50.966;5.284;2022-07-10T14:54:21;27.70;91.10
37460;DHT22;23318;50.966;5.284;2022-07-10T14:56:47;27.90;90.90
37460;DHT22;23318;50.966;5.284;2022-07-10T14:59:13;28.30;91.10
37460;DHT22;23318;50.966;5.284;2022-07-10T15:01:38;28.10;90.90
37460;DHT22;23318;50.966;5.284;2022-07-10T15:04:05;28.10;91.20
37460;DHT22;23318;50.966;5.284;2022-07-10T15:06:30;28.40;91.60
37460;DHT22;23318;50.966;5.284;2022-07-10T15:08:57;28.10;91.60
37460;DHT22;23318;50.966;5.284;2022-07-10T15:11:23;27.50;91.90
37460;DHT22;23318;50.966;5.284;2022-07-10T15:13:49;26.80;92.80
37460;DHT22;23318;50.966;5.284;2022-07-10T15:16:16;26.20;93.80
37460;DHT22;23318;50.966;5.284;2022-07-10T15:18:42;26.00;94.50
37460;DHT22;23318;50.966;5.284;2022-07-10T15:21:08;26.10;94.40
37460;DHT22;23318;50.966;5.284;2022-07-10T15:23:34;26.20;94.70
37460;DHT22;23318;50.966;5.284;2022-07-10T15:26:00;26.30;94.60
37460;DHT22;23318;50.966;5.284;2022-07-10T15:28:26;25.90;95.90
37460;DHT22;23318;50.966;5.284;2022-07-10T15:30:52;25.60;95.60
37460;DHT22;23318;50.966;5.284;2022-07-10T15:33:17;25.20;96.50
37460;DHT22;23318;50.966;5.284;2022-07-10T15:35:43;25.30;96.20
37460;DHT22;23318;50.966;5.284;2022-07-10T15:38:08;25.50;96.30
37460;DHT22;23318;50.966;5.284;2022-07-10T15:40:34;25.80;96.00
37460;DHT22;23318;50.966;5.284;2022-07-10T15:43:00;26.30;95.70
37460;DHT22;23318;50.966;5.284;2022-07-10T15:45:26;26.30;95.30
37460;DHT22;23318;50.966;5.284;2022-07-10T15:47:52;26.10;95.30